sensor_id;sensor_type;location;lat;lon;timestamp;pressure;altitude;pressure_sealevel;temperature;humidity
5966;BME280;3009;43.224;27.976;2023-03-03T00:00:33;100836.41;;;3.88;100.00
5966;BME280;3009;43.224;27.976;2023-03-03T00:03:03;100817.59;;;3.89;100.00
5966;BME280;3009;43.224;27.976;2023-03-03T00:05:33;100827.50;;;3.99;100.00
5966;BME280;3009;43.224;27.976;2023-03-03T00:08:03;100821.84;;;3.90;100.00
5966;BME280;3009;43.224;27.976;2023-03-03T00:10:31;100815.66;;;4.12;100.00
5966;BME280;3009;43.224;27.976;2023-03-03T00:13:00;100807.38;;;4.03;100.00
5966;BME280;3009;43.224;27.976;2023-03-03T00:15:30;100811.59;;;4.04;100.00
5966;BME280;3009;43.224;27.976;2023-03-03T00:17:58;100808.13;;;3.99;100.00
5966;BME280;3009;43.224;27.976;2023-03-03T00:20:37;100805.38;;;3.88;100.00
5966;BME280;3009;43.224;27.976;2023-03-03T00:23:18;100800.09;;;3.88;100.00
5966;BME280;3009;43.224;27.976;2023-03-03T00:25:50;100808.06;;;3.94;100.00
5966;BME280;3009;43.224;27.976;2023-03-03T00:28:24;100803.78;;;3.87;100.00
5966;BME280;3009;43.224;27.976;2023-03-03T00:30:56;100797.97;;;3.90;100.00
5966;BME280;3009;43.224;27.976;2023-03-03T00:33:28;100790.75;;;3.86;100.00
5966;BME280;3009;43.224;27.976;2023-03-03T00:36:09;100788.13;;;3.86;100.00
5966;BME280;3009;43.224;27.976;2023-03-03T00:38:47;100786.84;;;3.94;100.00
5966;BME280;3009;43.224;27.976;2023-03-03T00:41:20;100786.66;;;4.00;100.00
5966;BME280;3009;43.224;27.976;2023-03-03T00:43:50;100779.16;;;3.92;100.00
5966;BME280;3009;43.224;27.976;2023-03-03T00:46:22;100775.44;;;3.93;100.00
5966;BME280;3009;43.224;27.976;2023-03-03T00:48:51;100776.81;;;3.96;100.00
5966;BME280;3009;43.224;27.976;2023-03-03T00:51:27;100774.97;;;4.01;100.00
5966;BME280;3009;43.224;27.976;2023-03-03T00:53:56;100772.25;;;3.91;100.00
5966;BME280;3009;43.224;27.976;2023-03-03T00:56:26;100766.44;;;3.94;100.00
5966;BME280;3009;43.224;27.976;2023-03-03T00:58:55;100761.66;;;3.96;100.00
5966;BME280;3009;43.224;27.976;2023-03-03T01:01:25;100760.91;;;4.01;100.00
5966;BME280;3009;43.224;27.976;2023-03-03T01:03:53;100766.22;;;4.01;100.00
5966;BME280;3009;43.224;27.976;2023-03-03T01:06:22;100762.44;;;3.92;100.00
5966;BME280;3009;43.224;27.976;2023-03-03T01:08:51;100762.22;;;3.98;100.00
5966;BME280;3009;43.224;27.976;2023-03-03T01:11:22;100751.91;;;4.02;100.00
5966;BME280;3009;43.224;27.976;2023-03-03T01:13:52;100750.81;;;3.98;100.00
5966;BME280;3009;43.224;27.976;2023-03-03T01:16:20;100746.03;;;4.00;100.00
5966;BME280;3009;43.224;27.976;2023-03-03T01:18:50;100750.00;;;3.97;100.00
5966;BME280;3009;43.224;27.976;2023-03-03T01:21:18;100741.56;;;4.05;100.00
5966;BME280;3009;43.224;27.976;2023-03-03T01:23:47;100745.72;;;3.91;100.00
5966;BME280;3009;43.224;27.976;2023-03-03T01:26:15;100736.44;;;3.94;100.00
5966;BME280;3009;43.224;27.976;2023-03-03T01:28:44;100741.28;;;4.02;100.00
5966;BME280;3009;43.224;27.976;2023-03-03T01:31:12;100741.75;;;3.94;100.00
5966;BME280;3009;43.224;27.976;2023-03-03T01:33:40;100745.25;;;3.99;100.00
5966;BME280;3009;43.224;27.976;2023-03-03T01:36:10;100736.25;;;4.00;100.00
5966;BME280;3009;43.224;27.976;2023-03-03T01:38:39;100732.81;;;4.05;100.00
5966;BME280;3009;43.224;27.976;2023-03-03T01:41:07;100729.94;;;4.12;100.00
5966;BME280;3009;43.224;27.976;2023-03-03T01:43:42;100727.53;;;4.10;100.00
5966;BME280;3009;43.224;27.976;2023-03-03T01:46:34;100728.69;;;4.24;100.00
5966;BME280;3009;43.224;27.976;2023-03-03T01:49:11;100718.69;;;3.94;100.00
5966;BME280;3009;43.224;27.976;2023-03-03T01:51:48;100715.81;;;4.01;100.00
5966;BME280;3009;43.224;27.976;2023-03-03T01:54:22;100716.03;;;3.94;100.00
5966;BME280;3009;43.224;27.976;2023-03-03T01:56:54;100715.78;;;3.96;100.00
5966;BME280;3009;43.224;27.976;2023-03-03T01:59:26;100715.88;;;4.11;100.00
5966;BME280;3009;43.224;27.976;2023-03-03T02:01:56;100724.78;;;3.95;100.00
5966;BME280;3009;43.224;27.976;2023-03-03T02:04:25;100725.56;;;3.95;100.00
5966;BME280;3009;43.224;27.976;2023-03-03T02:06:58;100727.16;;;3.91;100.00
5966;BME280;3009;43.224;27.976;2023-03-03T02:09:34;100729.31;;;3.94;100.00
5966;BME280;3009;43.224;27.976;2023-03-03T02:12:07;100720.84;;;3.97;100.00
5966;BME280;3009;43.224;27.976;2023-03-03T02:14:36;100723.16;;;3.94;100.00
5966;BME280;3009;43.224;27.976;2023-03-03T02:17:05;100726.13;;;3.97;100.00
5966;BME280;3009;43.224;27.976;2023-03-03T02:19:38;100720.84;;;3.97;100.00
5966;BME280;3009;43.224;27.976;2023-03-03T02:22:11;100721.34;;;3.94;100.00
5966;BME280;3009;43.224;27.976;2023-03-03T02:24:44;100715.47;;;3.92;100.00
5966;BME280;3009;43.224;27.976;2023-03-03T02:27:18;100713.13;;;3.96;100.00
5966;BME280;3009;43.224;27.976;2023-03-03T02:29:46;100715.78;;;3.96;100.00
5966;BME280;3009;43.224;27.976;2023-03-03T02:32:14;100715.53;;;4.02;100.00
5966;BME280;3009;43.224;27.976;2023-03-03T02:34:46;100707.00;;;3.95;99.98
5966;BME280;3009;43.224;27.976;2023-03-03T02:37:15;100715.53;;;4.02;100.00
5966;BME280;3009;43.224;27.976;2023-03-03T02:39:44;100714.38;;;3.88;100.00
5966;BME280;3009;43.224;27.976;2023-03-03T02:42:15;100717.59;;;3.90;100.00
5966;BME280;3009;43.224;27.976;2023-03-03T02:44:47;100718.13;;;3.92;100.00
5966;BME280;3009;43.224;27.976;2023-03-03T02:47:15;100720.78;;;3.92;100.00
5966;BME280;3009;43.224;27.976;2023-03-03T02:49:43;100713.06;;;3.85;100.00
5966;BME280;3009;43.224;27.976;2023-03-03T02:52:12;100727.41;;;3.89;100.00
5966;BME280;3009;43.224;27.976;2023-03-03T02:54:43;100709.41;;;3.97;100.00
5966;BME280;3009;43.224;27.976;2023-03-03T02:57:12;100715.47;;;3.92;100.00
5966;BME280;3009;43.224;27.976;2023-03-03T02:59:41;100724.28;;;3.98;100.00
5966;BME280;3009;43.224;27.976;2023-03-03T03:02:11;100714.50;;;4.03;99.65
5966;BME280;3009;43.224;27.976;2023-03-03T03:04:39;100703.31;;;4.01;99.96
5966;BME280;3009;43.224;27.976;2023-03-03T03:07:08;100709.41;;;3.97;99.62
5966;BME280;3009;43.224;27.976;2023-03-03T03:09:37;100705.88;;;3.86;100.00
5966;BME280;3009;43.224;27.976;2023-03-03T03:12:07;100705.09;;;3.85;100.00
5966;BME280;3009;43.224;27.976;2023-03-03T03:14:35;100705.88;;;3.86;100.00
5966;BME280;3009;43.224;27.976;2023-03-03T03:17:03;100697.38;;;3.84;100.00
5966;BME280;3009;43.224;27.976;2023-03-03T03:19:33;100702.94;;;3.82;100.00
5966;BME280;3009;43.224;27.976;2023-03-03T03:22:02;100699.28;;;3.88;100.00
5966;BME280;3009;43.224;27.976;2023-03-03T03:24:30;100694.16;;;3.82;100.00
5966;BME280;3009;43.224;27.976;2023-03-03T03:26:59;100691.53;;;3.82;100.00
5966;BME280;3009;43.224;27.976;2023-03-03T03:29:27;100687.38;;;3.91;100.00
5966;BME280;3009;43.224;27.976;2023-03-03T03:31:56;100699.72;;;3.80;100.00
5966;BME280;3009;43.224;27.976;2023-03-03T03:34:24;100693.63;;;3.75;100.00
5966;BME280;3009;43.224;27.976;2023-03-03T03:36:54;100687.50;;;3.74;100.00
5966;BME280;3009;43.224;27.976;2023-03-03T03:39:22;100693.56;;;3.69;100.00
5966;BME280;3009;43.224;27.976;2023-03-03T03:41:51;100690.44;;;3.78;100.00
5966;BME280;3009;43.224;27.976;2023-03-03T03:44:19;100688.25;;;3.69;100.00
5966;BME280;3009;43.224;27.976;2023-03-03T03:46:49;100679.72;;;3.62;100.00
5966;BME280;3009;43.224;27.976;2023-03-03T03:49:18;100680.81;;;3.66;100.00
5966;BME280;3009;43.224;27.976;2023-03-03T03:51:46;100677.22;;;3.83;100.00
5966;BME280;3009;43.224;27.976;2023-03-03T03:54:16;100691.81;;;3.85;100.00
5966;BME280;3009;43.224;27.976;2023-03-03T03:56:45;100686.78;;;3.84;100.00
5966;BME280;3009;43.224;27.976;2023-03-03T03:59:13;100675.16;;;3.95;100.00
5966;BME280;3009;43.224;27.976;2023-03-03T04:01:41;100674.63;;;3.93;100.00
5966;BME280;3009;43.224;27.976;2023-03-03T04:04:10;100673.25;;;3.85;100.00
5966;BME280;3009;43.224;27.976;2023-03-03T04:06:38;100672.22;;;3.92;100.00
5966;BME280;3009;43.224;27.976;2023-03-03T04:09:07;100679.59;;;3.79;100.00
5966;BME280;3009;43.224;27.976;2023-03-03T04:11:36;100667.66;;;3.82;100.00
5966;BME280;3009;43.224;27.976;2023-03-03T04:14:05;100673.50;;;3.84;100.00
5966;BME280;3009;43.224;27.976;2023-03-03T04:16:34;100662.31;;;3.77;100.00
5966;BME280;3009;43.224;27.976;2023-03-03T04:19:02;100667.91;;;3.80;100.00
5966;BME280;3009;43.224;27.976;2023-03-03T04:21:31;100660.75;;;3.81;100.00
5966;BME280;3009;43.224;27.976;2023-03-03T04:23:59;100665.31;;;3.85;100.00
5966;BME280;3009;43.224;27.976;2023-03-03T04:26:27;100668.22;;;3.89;100.00
5966;BME280;3009;43.224;27.976;2023-03-03T04:28:58;100666.00;;;3.70;100.00
5966;BME280;3009;43.224;27.976;2023-03-03T04:31:27;100665.47;;;3.73;100.00
5966;BME280;3009;43.224;27.976;2023-03-03T04:33:55;100667.66;;;3.82;100.00
5966;BME280;3009;43.224;27.976;2023-03-03T04:36:24;100654.13;;;3.83;100.00
5966;BME280;3009;43.224;27.976;2023-03-03T04:38:52;100663.16;;;3.82;100.00
5966;BME280;3009;43.224;27.976;2023-03-03T04:41:21;100659.16;;;3.80;100.00
5966;BME280;3009;43.224;27.976;2023-03-03T04:43:49;100669.16;;;3.67;100.00
5966;BME280;3009;43.224;27.976;2023-03-03T04:46:19;100665.47;;;3.73;100.00
5966;BME280;3009;43.224;27.976;2023-03-03T04:48:47;100667.72;;;3.92;100.00
5966;BME280;3009;43.224;27.976;2023-03-03T04:51:16;100665.75;;;3.77;100.00
5966;BME280;3009;43.224;27.976;2023-03-03T04:53:44;100662.91;;;3.84;100.00
5966;BME280;3009;43.224;27.976;2023-03-03T04:56:13;100666.56;;;3.78;100.00
5966;BME280;3009;43.224;27.976;2023-03-03T04:58:41;100664.22;;;3.86;100.00
5966;BME280;3009;43.224;27.976;2023-03-03T05:01:11;100661.03;;;3.79;100.00
5966;BME280;3009;43.224;27.976;2023-03-03T05:03:42;100663.38;;;3.76;100.00
5966;BME280;3009;43.224;27.976;2023-03-03T05:06:10;100671.31;;;3.76;100.00
5966;BME280;3009;43.224;27.976;2023-03-03T05:08:39;100667.91;;;3.80;100.00
5966;BME280;3009;43.224;27.976;2023-03-03T05:11:08;100666.63;;;3.88;100.00
5966;BME280;3009;43.224;27.976;2023-03-03T05:13:37;100672.19;;;3.86;100.00
5966;BME280;3009;43.224;27.976;2023-03-03T05:16:06;100671.13;;;3.87;100.00
5966;BME280;3009;43.224;27.976;2023-03-03T05:18:35;100667.72;;;3.92;100.00
5966;BME280;3009;43.224;27.976;2023-03-03T05:21:06;100666.41;;;3.89;100.00
5966;BME280;3009;43.224;27.976;2023-03-03T05:23:34;100669.28;;;3.88;100.00
5966;BME280;3009;43.224;27.976;2023-03-03T05:26:03;100671.97;;;3.93;99.97
5966;BME280;3009;43.224;27.976;2023-03-03T05:28:31;100672.50;;;3.95;100.00
5966;BME280;3009;43.224;27.976;2023-03-03T05:31:00;100673.06;;;3.97;99.25
5966;BME280;3009;43.224;27.976;2023-03-03T05:33:28;100686.28;;;3.92;99.52
5966;BME280;3009;43.224;27.976;2023-03-03T05:35:57;100681.81;;;3.93;99.25
5966;BME280;3009;43.224;27.976;2023-03-03T05:38:27;100684.22;;;3.99;98.80
5966;BME280;3009;43.224;27.976;2023-03-03T05:40:55;100679.97;;;3.98;99.14
5966;BME280;3009;43.224;27.976;2023-03-03T05:43:23;100678.41;;;4.02;99.02
5966;BME280;3009;43.224;27.976;2023-03-03T05:45:54;100679.50;;;4.06;98.28
5966;BME280;3009;43.224;27.976;2023-03-03T05:48:23;100677.94;;;4.16;98.09
5966;BME280;3009;43.224;27.976;2023-03-03T05:50:52;100684.63;;;4.29;97.52
5966;BME280;3009;43.224;27.976;2023-03-03T05:53:20;100689.34;;;4.16;97.04
5966;BME280;3009;43.224;27.976;2023-03-03T05:55:50;100695.25;;;4.23;96.43
5966;BME280;3009;43.224;27.976;2023-03-03T05:58:20;100680.16;;;4.29;96.18
5966;BME280;3009;43.224;27.976;2023-03-03T06:00:48;100685.41;;;4.19;96.99
5966;BME280;3009;43.224;27.976;2023-03-03T06:03:17;100684.34;;;4.20;97.23
5966;BME280;3009;43.224;27.976;2023-03-03T06:05:45;100694.38;;;4.13;97.93
5966;BME280;3009;43.224;27.976;2023-03-03T06:08:14;100684.88;;;4.17;97.79
5966;BME280;3009;43.224;27.976;2023-03-03T06:10:42;100677.19;;;4.20;97.21
5966;BME280;3009;43.224;27.976;2023-03-03T06:13:12;100685.97;;;4.26;96.89
5966;BME280;3009;43.224;27.976;2023-03-03T06:15:40;100681.75;;;4.35;96.74
5966;BME280;3009;43.224;27.976;2023-03-03T06:18:09;100686.00;;;4.31;96.46
5966;BME280;3009;43.224;27.976;2023-03-03T06:20:37;100673.28;;;4.38;96.44
5966;BME280;3009;43.224;27.976;2023-03-03T06:23:06;100677.28;;;4.46;95.81
5966;BME280;3009;43.224;27.976;2023-03-03T06:25:34;100677.81;;;4.38;95.72
5966;BME280;3009;43.224;27.976;2023-03-03T06:28:03;100686.09;;;4.52;94.37
5966;BME280;3009;43.224;27.976;2023-03-03T06:30:33;100683.69;;;4.50;94.53
5966;BME280;3009;43.224;27.976;2023-03-03T06:33:01;100686.59;;;4.49;94.75
5966;BME280;3009;43.224;27.976;2023-03-03T06:35:29;100688.44;;;4.38;95.55
5966;BME280;3009;43.224;27.976;2023-03-03T06:37:58;100687.66;;;4.48;96.01
5966;BME280;3009;43.224;27.976;2023-03-03T06:40:26;100687.66;;;4.53;95.08
5966;BME280;3009;43.224;27.976;2023-03-03T06:42:55;100690.09;;;4.65;94.13
5966;BME280;3009;43.224;27.976;2023-03-03T06:45:23;100694.59;;;4.54;94.00
5966;BME280;3009;43.224;27.976;2023-03-03T06:47:53;100699.66;;;4.60;93.15
5966;BME280;3009;43.224;27.976;2023-03-03T06:50:21;100694.69;;;4.79;92.38
5966;BME280;3009;43.224;27.976;2023-03-03T06:53:00;100704.28;;;5.01;91.34
5966;BME280;3009;43.224;27.976;2023-03-03T06:55:29;100691.00;;;4.96;90.15
5966;BME280;3009;43.224;27.976;2023-03-03T06:57:58;100694.66;;;4.74;90.52
5966;BME280;3009;43.224;27.976;2023-03-03T07:00:27;100696.75;;;4.67;90.58
5966;BME280;3009;43.224;27.976;2023-03-03T07:02:59;100691.50;;;4.83;90.80
5966;BME280;3009;43.224;27.976;2023-03-03T07:05:29;100692.06;;;4.90;89.71
5966;BME280;3009;43.224;27.976;2023-03-03T07:07:58;100688.34;;;4.96;88.67
5966;BME280;3009;43.224;27.976;2023-03-03T07:10:28;100691.78;;;4.96;87.83
5966;BME280;3009;43.224;27.976;2023-03-03T07:13:01;100689.69;;;4.99;88.93
5966;BME280;3009;43.224;27.976;2023-03-03T07:15:37;100689.34;;;4.74;90.16
5966;BME280;3009;43.224;27.976;2023-03-03T07:18:26;100679.56;;;4.90;89.96
5966;BME280;3009;43.224;27.976;2023-03-03T07:20:58;100685.16;;;4.94;90.07
5966;BME280;3009;43.224;27.976;2023-03-03T07:23:32;100682.50;;;4.99;89.62
5966;BME280;3009;43.224;27.976;2023-03-03T07:26:11;100685.75;;;5.17;88.71
5966;BME280;3009;43.224;27.976;2023-03-03T07:28:41;100673.50;;;5.10;89.09
5966;BME280;3009;43.224;27.976;2023-03-03T07:31:29;100674.56;;;5.25;88.16
5966;BME280;3009;43.224;27.976;2023-03-03T07:34:00;100672.69;;;5.25;88.20
5966;BME280;3009;43.224;27.976;2023-03-03T07:36:34;100670.56;;;5.22;88.85
5966;BME280;3009;43.224;27.976;2023-03-03T07:39:19;100672.44;;;5.11;88.95
5966;BME280;3009;43.224;27.976;2023-03-03T07:41:49;100673.78;;;5.09;89.74
5966;BME280;3009;43.224;27.976;2023-03-03T07:44:20;100670.56;;;5.17;89.48
5966;BME280;3009;43.224;27.976;2023-03-03T07:46:49;100673.50;;;5.15;89.40
5966;BME280;3009;43.224;27.976;2023-03-03T07:49:23;100666.84;;;5.08;89.46
5966;BME280;3009;43.224;27.976;2023-03-03T07:51:53;100664.47;;;5.17;89.95
5966;BME280;3009;43.224;27.976;2023-03-03T07:54:30;100663.97;;;5.30;89.72
5966;BME280;3009;43.224;27.976;2023-03-03T07:57:13;100660.75;;;5.48;88.38
5966;BME280;3009;43.224;27.976;2023-03-03T07:59:46;100657.56;;;5.52;87.22
5966;BME280;3009;43.224;27.976;2023-03-03T08:02:34;100650.66;;;5.61;86.73
5966;BME280;3009;43.224;27.976;2023-03-03T08:05:26;100652.75;;;5.84;85.92
5966;BME280;3009;43.224;27.976;2023-03-03T08:08:26;100650.31;;;6.03;84.70
5966;BME280;3009;43.224;27.976;2023-03-03T08:10:57;100647.16;;;5.81;85.27
5966;BME280;3009;43.224;27.976;2023-03-03T08:13:35;100656.75;;;5.77;84.20
5966;BME280;3009;43.224;27.976;2023-03-03T08:16:23;100653.28;;;5.97;84.27
5966;BME280;3009;43.224;27.976;2023-03-03T08:18:54;100641.00;;;6.06;83.49
5966;BME280;3009;43.224;27.976;2023-03-03T08:21:26;100647.94;;;6.02;82.29
5966;BME280;3009;43.224;27.976;2023-03-03T08:23:58;100640.22;;;5.95;82.46
5966;BME280;3009;43.224;27.976;2023-03-03T08:26:26;100640.94;;;6.32;81.05
5966;BME280;3009;43.224;27.976;2023-03-03T08:28:55;100648.34;;;6.40;81.07
5966;BME280;3009;43.224;27.976;2023-03-03T08:31:23;100647.66;;;6.74;79.69
5966;BME280;3009;43.224;27.976;2023-03-03T08:34:06;100639.25;;;6.51;79.83
5966;BME280;3009;43.224;27.976;2023-03-03T08:36:36;100643.50;;;6.52;80.54
5966;BME280;3009;43.224;27.976;2023-03-03T08:39:05;100638.78;;;6.89;79.16
5966;BME280;3009;43.224;27.976;2023-03-03T08:41:33;100640.53;;;7.04;78.07
5966;BME280;3009;43.224;27.976;2023-03-03T08:44:02;100646.72;;;6.99;77.18
5966;BME280;3009;43.224;27.976;2023-03-03T08:46:30;100649.59;;;7.03;77.52
5966;BME280;3009;43.224;27.976;2023-03-03T08:48:59;100645.63;;;7.00;75.99
5966;BME280;3009;43.224;27.976;2023-03-03T08:51:28;100642.78;;;7.26;75.68
5966;BME280;3009;43.224;27.976;2023-03-03T08:53:57;100641.22;;;7.20;76.10
5966;BME280;3009;43.224;27.976;2023-03-03T08:56:26;100645.56;;;7.45;74.61
5966;BME280;3009;43.224;27.976;2023-03-03T08:58:54;100655.84;;;7.86;73.58
5966;BME280;3009;43.224;27.976;2023-03-03T09:01:28;100652.06;;;7.34;72.94
5966;BME280;3009;43.224;27.976;2023-03-03T09:03:58;100649.84;;;7.41;73.13
5966;BME280;3009;43.224;27.976;2023-03-03T09:06:26;100650.81;;;7.55;74.83
5966;BME280;3009;43.224;27.976;2023-03-03T09:08:56;100657.25;;;8.08;72.90
5966;BME280;3009;43.224;27.976;2023-03-03T09:11:27;100655.28;;;8.13;71.56
5966;BME280;3009;43.224;27.976;2023-03-03T09:14:03;100641.25;;;8.03;72.23
5966;BME280;3009;43.224;27.976;2023-03-03T09:16:37;100641.84;;;7.99;72.60
5966;BME280;3009;43.224;27.976;2023-03-03T09:19:17;100642.63;;;8.24;72.37
5966;BME280;3009;43.224;27.976;2023-03-03T09:21:47;100633.03;;;8.23;71.59
5966;BME280;3009;43.224;27.976;2023-03-03T09:24:24;100631.88;;;7.81;72.23
5966;BME280;3009;43.224;27.976;2023-03-03T09:26:53;100636.66;;;7.84;72.74
5966;BME280;3009;43.224;27.976;2023-03-03T09:29:26;100630.19;;;7.90;72.57
5966;BME280;3009;43.224;27.976;2023-03-03T09:31:56;100630.00;;;8.06;72.43
5966;BME280;3009;43.224;27.976;2023-03-03T09:34:36;100626.31;;;8.02;72.04
5966;BME280;3009;43.224;27.976;2023-03-03T09:37:18;100622.09;;;8.20;72.29
5966;BME280;3009;43.224;27.976;2023-03-03T09:39:51;100618.66;;;8.19;71.22
5966;BME280;3009;43.224;27.976;2023-03-03T09:42:36;100622.56;;;8.27;71.11
5966;BME280;3009;43.224;27.976;2023-03-03T09:45:36;100617.00;;;8.47;69.65
5966;BME280;3009;43.224;27.976;2023-03-03T09:48:31;100617.09;;;8.37;71.16
5966;BME280;3009;43.224;27.976;2023-03-03T09:51:14;100612.00;;;7.92;72.07
5966;BME280;3009;43.224;27.976;2023-03-03T09:53:56;100612.81;;;8.17;72.04
5966;BME280;3009;43.224;27.976;2023-03-03T09:56:32;100602.84;;;8.23;72.18
5966;BME280;3009;43.224;27.976;2023-03-03T09:59:15;100595.72;;;8.37;70.34
5966;BME280;3009;43.224;27.976;2023-03-03T10:02:03;100591.31;;;8.27;70.55
5966;BME280;3009;43.224;27.976;2023-03-03T10:04:43;100585.56;;;8.15;71.05
5966;BME280;3009;43.224;27.976;2023-03-03T10:07:25;100586.63;;;8.38;70.91
5966;BME280;3009;43.224;27.976;2023-03-03T10:10:05;100578.72;;;8.71;70.69
5966;BME280;3009;43.224;27.976;2023-03-03T10:12:47;100574.88;;;9.10;69.57
5966;BME280;3009;43.224;27.976;2023-03-03T10:15:31;100583.84;;;8.86;69.01
5966;BME280;3009;43.224;27.976;2023-03-03T10:18:12;100570.22;;;8.26;70.96
5966;BME280;3009;43.224;27.976;2023-03-03T10:20:48;100562.75;;;8.23;71.96
5966;BME280;3009;43.224;27.976;2023-03-03T10:23:29;100561.38;;;8.68;70.65
5966;BME280;3009;43.224;27.976;2023-03-03T10:26:13;100557.34;;;8.52;70.46
5966;BME280;3009;43.224;27.976;2023-03-03T10:29:16;100556.69;;;8.60;71.21
5966;BME280;3009;43.224;27.976;2023-03-03T10:31:57;100550.47;;;8.03;72.19
5966;BME280;3009;43.224;27.976;2023-03-03T10:37:23;100556.47;;;7.94;72.17
5966;BME280;3009;43.224;27.976;2023-03-03T10:40:15;100557.28;;;8.14;71.44
5966;BME280;3009;43.224;27.976;2023-03-03T10:43:12;100544.91;;;8.80;70.14
5966;BME280;3009;43.224;27.976;2023-03-03T10:46:15;100542.09;;;8.72;69.04
5966;BME280;3009;43.224;27.976;2023-03-03T10:49:00;100545.25;;;8.74;69.05
5966;BME280;3009;43.224;27.976;2023-03-03T10:51:37;100543.59;;;8.40;69.29
5966;BME280;3009;43.224;27.976;2023-03-03T10:54:25;100542.66;;;8.30;70.42
5966;BME280;3009;43.224;27.976;2023-03-03T10:57:12;100545.56;;;8.53;69.13
5966;BME280;3009;43.224;27.976;2023-03-03T10:59:54;100544.09;;;8.80;68.91
5966;BME280;3009;43.224;27.976;2023-03-03T11:02:29;100545.97;;;9.12;67.77
5966;BME280;3009;43.224;27.976;2023-03-03T11:05:13;100540.41;;;9.09;67.33
5966;BME280;3009;43.224;27.976;2023-03-03T11:07:48;100527.91;;;9.04;66.57
5966;BME280;3009;43.224;27.976;2023-03-03T11:10:23;100518.63;;;9.01;66.74
5966;BME280;3009;43.224;27.976;2023-03-03T11:13:06;100514.66;;;9.13;66.95
5966;BME280;3009;43.224;27.976;2023-03-03T11:15:50;100503.78;;;9.09;66.88
5966;BME280;3009;43.224;27.976;2023-03-03T11:18:34;100503.16;;;8.65;68.28
5966;BME280;3009;43.224;27.976;2023-03-03T11:21:12;100497.03;;;8.46;69.50
5966;BME280;3009;43.224;27.976;2023-03-03T11:27:14;100488.94;;;8.51;68.34
5966;BME280;3009;43.224;27.976;2023-03-03T11:30:02;100474.91;;;8.59;68.31
5966;BME280;3009;43.224;27.976;2023-03-03T11:32:40;100466.53;;;8.28;69.56
5966;BME280;3009;43.224;27.976;2023-03-03T11:35:21;100476.50;;;7.84;72.58
5966;BME280;3009;43.224;27.976;2023-03-03T11:37:58;100474.09;;;7.83;73.39
5966;BME280;3009;43.224;27.976;2023-03-03T11:40:36;100470.66;;;7.82;73.86
5966;BME280;3009;43.224;27.976;2023-03-03T11:43:14;100473.16;;;7.92;72.84
5966;BME280;3009;43.224;27.976;2023-03-03T11:46:04;100469.59;;;7.59;74.35
5966;BME280;3009;43.224;27.976;2023-03-03T11:48:40;100470.06;;;8.04;74.09
5966;BME280;3009;43.224;27.976;2023-03-03T11:51:15;100456.50;;;7.81;75.76
5966;BME280;3009;43.224;27.976;2023-03-03T11:53:58;100452.25;;;8.19;74.57
5966;BME280;3009;43.224;27.976;2023-03-03T11:56:33;100457.81;;;8.22;72.20
5966;BME280;3009;43.224;27.976;2023-03-03T11:59:28;100461.50;;;8.07;73.46
5966;BME280;3009;43.224;27.976;2023-03-03T12:02:02;100457.66;;;8.13;73.56
5966;BME280;3009;43.224;27.976;2023-03-03T12:04:39;100463.94;;;8.04;74.05
5966;BME280;3009;43.224;27.976;2023-03-03T12:07:21;100465.75;;;8.08;73.90
5966;BME280;3009;43.224;27.976;2023-03-03T12:09:59;100463.19;;;7.60;74.68
5966;BME280;3009;43.224;27.976;2023-03-03T12:12:34;100462.88;;;7.13;76.73
5966;BME280;3009;43.224;27.976;2023-03-03T12:15:16;100463.97;;;7.12;77.20
5966;BME280;3009;43.224;27.976;2023-03-03T12:18:11;100455.41;;;7.39;77.54
5966;BME280;3009;43.224;27.976;2023-03-03T12:20:49;100449.84;;;7.60;76.91
5966;BME280;3009;43.224;27.976;2023-03-03T12:23:37;100455.28;;;7.93;76.74
5966;BME280;3009;43.224;27.976;2023-03-03T12:26:16;100456.72;;;8.04;77.23
5966;BME280;3009;43.224;27.976;2023-03-03T12:28:51;100466.09;;;7.83;76.51
5966;BME280;3009;43.224;27.976;2023-03-03T12:31:29;100468.47;;;7.84;76.10
5966;BME280;3009;43.224;27.976;2023-03-03T12:34:05;100455.63;;;7.67;75.01
5966;BME280;3009;43.224;27.976;2023-03-03T12:36:49;100448.19;;;7.83;74.96
5966;BME280;3009;43.224;27.976;2023-03-03T12:39:34;100454.19;;;7.75;76.51
5966;BME280;3009;43.224;27.976;2023-03-03T12:42:11;100455.00;;;7.51;75.83
5966;BME280;3009;43.224;27.976;2023-03-03T12:44:47;100459.78;;;7.54;77.14
5966;BME280;3009;43.224;27.976;2023-03-03T12:47:24;100460.72;;;7.39;77.69
5966;BME280;3009;43.224;27.976;2023-03-03T12:50:08;100460.63;;;7.25;77.10
5966;BME280;3009;43.224;27.976;2023-03-03T12:52:47;100455.66;;;7.43;78.00
5966;BME280;3009;43.224;27.976;2023-03-03T12:55:25;100458.88;;;7.64;77.74
5966;BME280;3009;43.224;27.976;2023-03-03T12:58:08;100452.97;;;7.43;79.26
5966;BME280;3009;43.224;27.976;2023-03-03T13:00:45;100453.28;;;7.12;78.71
5966;BME280;3009;43.224;27.976;2023-03-03T13:03:24;100445.66;;;7.30;80.98
5966;BME280;3009;43.224;27.976;2023-03-03T13:06:22;100447.34;;;7.20;79.74
5966;BME280;3009;43.224;27.976;2023-03-03T13:09:14;100441.31;;;7.09;80.37
5966;BME280;3009;43.224;27.976;2023-03-03T13:12:16;100440.22;;;7.16;78.89
5966;BME280;3009;43.224;27.976;2023-03-03T13:14:51;100447.69;;;7.38;79.03
5966;BME280;3009;43.224;27.976;2023-03-03T13:17:27;100447.19;;;7.36;80.04
5966;BME280;3009;43.224;27.976;2023-03-03T13:19:58;100448.41;;;7.68;79.05
5966;BME280;3009;43.224;27.976;2023-03-03T13:22:37;100447.56;;;7.48;79.13
5966;BME280;3009;43.224;27.976;2023-03-03T13:25:23;100444.22;;;7.13;81.72
5966;BME280;3009;43.224;27.976;2023-03-03T13:28:01;100447.00;;;7.03;81.63
5966;BME280;3009;43.224;27.976;2023-03-03T13:30:38;100437.03;;;6.84;82.18
5966;BME280;3009;43.224;27.976;2023-03-03T13:33:09;100436.31;;;7.03;82.02
5966;BME280;3009;43.224;27.976;2023-03-03T13:35:42;100436.41;;;6.92;83.10
5966;BME280;3009;43.224;27.976;2023-03-03T13:38:16;100435.63;;;6.92;83.70
5966;BME280;3009;43.224;27.976;2023-03-03T13:40:50;100438.03;;;6.94;84.46
5966;BME280;3009;43.224;27.976;2023-03-03T13:43:25;100432.50;;;6.85;84.34
5966;BME280;3009;43.224;27.976;2023-03-03T13:46:04;100431.38;;;6.62;85.04
5966;BME280;3009;43.224;27.976;2023-03-03T13:48:50;100430.34;;;6.57;86.13